sensor_id;sensor_type;location;lat;lon;timestamp;P1;durP1;ratioP1;P2;durP2;ratioP2
73697;SDS011;62004;42.566;23.164;2023-04-08T00:01:43;81.03;;;23.87;;
73697;SDS011;62004;42.566;23.164;2023-04-08T00:04:08;82.07;;;25.30;;
73697;SDS011;62004;42.566;23.164;2023-04-08T00:06:34;81.78;;;24.73;;
73697;SDS011;62004;42.566;23.164;2023-04-08T00:08:59;81.80;;;24.90;;
73697;SDS011;62004;42.566;23.164;2023-04-08T00:11:25;81.93;;;24.90;;
73697;SDS011;62004;42.566;23.164;2023-04-08T00:13:50;81.87;;;24.53;;
73697;SDS011;62004;42.566;23.164;2023-04-08T00:16:15;81.70;;;24.20;;
73697;SDS011;62004;42.566;23.164;2023-04-08T00:18:40;82.07;;;25.17;;
73697;SDS011;62004;42.566;23.164;2023-04-08T00:21:06;81.72;;;24.13;;
73697;SDS011;62004;42.566;23.164;2023-04-08T00:23:31;82.27;;;25.53;;
73697;SDS011;62004;42.566;23.164;2023-04-08T00:25:57;81.67;;;24.63;;
73697;SDS011;62004;42.566;23.164;2023-04-08T00:28:22;81.27;;;24.40;;
73697;SDS011;62004;42.566;23.164;2023-04-08T00:30:47;82.17;;;25.23;;
73697;SDS011;62004;42.566;23.164;2023-04-08T00:33:12;81.27;;;24.27;;
73697;SDS011;62004;42.566;23.164;2023-04-08T00:35:38;81.27;;;24.70;;
73697;SDS011;62004;42.566;23.164;2023-04-08T00:38:03;81.70;;;25.03;;
73697;SDS011;62004;42.566;23.164;2023-04-08T00:40:31;81.35;;;24.65;;
73697;SDS011;62004;42.566;23.164;2023-04-08T00:42:57;81.67;;;25.30;;
73697;SDS011;62004;42.566;23.164;2023-04-08T00:45:22;81.75;;;25.00;;
73697;SDS011;62004;42.566;23.164;2023-04-08T00:47:47;81.87;;;24.40;;
73697;SDS011;62004;42.566;23.164;2023-04-08T00:50:16;82.03;;;24.98;;
73697;SDS011;62004;42.566;23.164;2023-04-08T00:52:42;81.57;;;24.67;;
73697;SDS011;62004;42.566;23.164;2023-04-08T00:55:07;81.90;;;24.83;;
73697;SDS011;62004;42.566;23.164;2023-04-08T00:57:32;81.93;;;24.80;;
73697;SDS011;62004;42.566;23.164;2023-04-08T00:59:58;82.05;;;24.95;;
73697;SDS011;62004;42.566;23.164;2023-04-08T01:07:16;81.90;;;24.57;;
73697;SDS011;62004;42.566;23.164;2023-04-08T01:09:44;81.53;;;25.23;;
73697;SDS011;62004;42.566;23.164;2023-04-08T01:12:10;81.55;;;24.83;;
73697;SDS011;62004;42.566;23.164;2023-04-08T01:14:37;81.90;;;24.58;;
73697;SDS011;62004;42.566;23.164;2023-04-08T01:17:03;81.40;;;24.30;;
73697;SDS011;62004;42.566;23.164;2023-04-08T01:19:36;81.70;;;24.45;;
73697;SDS011;62004;42.566;23.164;2023-04-08T01:22:04;82.45;;;25.52;;
73697;SDS011;62004;42.566;23.164;2023-04-08T01:24:32;80.97;;;24.33;;
73697;SDS011;62004;42.566;23.164;2023-04-08T01:27:00;81.10;;;24.73;;
73697;SDS011;62004;42.566;23.164;2023-04-08T01:29:26;81.65;;;24.15;;
73697;SDS011;62004;42.566;23.164;2023-04-08T01:31:52;81.63;;;24.63;;
73697;SDS011;62004;42.566;23.164;2023-04-08T01:34:17;81.40;;;24.00;;
73697;SDS011;62004;42.566;23.164;2023-04-08T01:36:44;81.22;;;24.20;;
73697;SDS011;62004;42.566;23.164;2023-04-08T01:39:10;81.25;;;24.90;;
73697;SDS011;62004;42.566;23.164;2023-04-08T01:41:36;81.85;;;25.02;;
73697;SDS011;62004;42.566;23.164;2023-04-08T01:44:01;81.65;;;24.35;;
73697;SDS011;62004;42.566;23.164;2023-04-08T01:46:27;82.15;;;25.38;;
73697;SDS011;62004;42.566;23.164;2023-04-08T01:48:53;81.97;;;24.88;;
73697;SDS011;62004;42.566;23.164;2023-04-08T01:51:19;82.07;;;24.40;;
73697;SDS011;62004;42.566;23.164;2023-04-08T01:53:45;81.82;;;24.77;;
73697;SDS011;62004;42.566;23.164;2023-04-08T01:56:11;82.13;;;25.30;;
73697;SDS011;62004;42.566;23.164;2023-04-08T01:58:38;81.85;;;24.30;;
73697;SDS011;62004;42.566;23.164;2023-04-08T02:01:05;81.90;;;24.95;;
73697;SDS011;62004;42.566;23.164;2023-04-08T02:03:34;82.28;;;25.05;;
73697;SDS011;62004;42.566;23.164;2023-04-08T02:05:59;82.18;;;25.27;;
73697;SDS011;62004;42.566;23.164;2023-04-08T02:08:24;81.33;;;24.30;;
73697;SDS011;62004;42.566;23.164;2023-04-08T02:10:50;82.00;;;24.80;;
73697;SDS011;62004;42.566;23.164;2023-04-08T02:13:15;81.38;;;24.60;;
73697;SDS011;62004;42.566;23.164;2023-04-08T02:15:41;81.53;;;25.37;;
73697;SDS011;62004;42.566;23.164;2023-04-08T02:18:14;81.65;;;24.60;;
73697;SDS011;62004;42.566;23.164;2023-04-08T02:20:46;81.38;;;24.23;;
73697;SDS011;62004;42.566;23.164;2023-04-08T02:23:19;81.40;;;24.88;;
73697;SDS011;62004;42.566;23.164;2023-04-08T02:25:44;81.53;;;24.85;;
73697;SDS011;62004;42.566;23.164;2023-04-08T02:28:11;81.55;;;24.90;;
73697;SDS011;62004;42.566;23.164;2023-04-08T02:30:39;81.63;;;24.88;;
73697;SDS011;62004;42.566;23.164;2023-04-08T02:33:05;81.82;;;24.83;;
73697;SDS011;62004;42.566;23.164;2023-04-08T02:35:31;81.85;;;24.80;;
73697;SDS011;62004;42.566;23.164;2023-04-08T02:37:57;81.63;;;24.63;;
73697;SDS011;62004;42.566;23.164;2023-04-08T02:40:23;82.17;;;25.23;;
73697;SDS011;62004;42.566;23.164;2023-04-08T02:42:49;81.70;;;24.27;;
73697;SDS011;62004;42.566;23.164;2023-04-08T02:45:15;81.00;;;24.10;;
73697;SDS011;62004;42.566;23.164;2023-04-08T02:47:40;81.38;;;24.63;;
73697;SDS011;62004;42.566;23.164;2023-04-08T02:50:06;81.90;;;25.03;;
73697;SDS011;62004;42.566;23.164;2023-04-08T02:52:31;81.78;;;24.67;;
73697;SDS011;62004;42.566;23.164;2023-04-08T02:54:56;81.43;;;24.03;;
73697;SDS011;62004;42.566;23.164;2023-04-08T02:57:21;81.97;;;24.43;;
73697;SDS011;62004;42.566;23.164;2023-04-08T02:59:47;81.27;;;23.93;;
73697;SDS011;62004;42.566;23.164;2023-04-08T03:02:12;82.20;;;25.30;;
73697;SDS011;62004;42.566;23.164;2023-04-08T03:04:37;81.87;;;24.90;;
73697;SDS011;62004;42.566;23.164;2023-04-08T03:07:02;82.00;;;24.97;;
73697;SDS011;62004;42.566;23.164;2023-04-08T03:09:28;81.43;;;24.50;;
73697;SDS011;62004;42.566;23.164;2023-04-08T03:11:53;81.77;;;24.07;;
73697;SDS011;62004;42.566;23.164;2023-04-08T03:14:19;81.95;;;24.48;;
73697;SDS011;62004;42.566;23.164;2023-04-08T03:16:44;81.25;;;24.33;;
73697;SDS011;62004;42.566;23.164;2023-04-08T03:19:09;81.87;;;25.00;;
73697;SDS011;62004;42.566;23.164;2023-04-08T03:21:35;81.60;;;24.40;;
73697;SDS011;62004;42.566;23.164;2023-04-08T03:24:00;81.00;;;23.63;;
73697;SDS011;62004;42.566;23.164;2023-04-08T03:26:25;81.33;;;24.37;;
73697;SDS011;62004;42.566;23.164;2023-04-08T03:28:51;81.15;;;23.92;;
73697;SDS011;62004;42.566;23.164;2023-04-08T03:31:16;80.75;;;24.45;;
73697;SDS011;62004;42.566;23.164;2023-04-08T03:33:45;81.88;;;24.40;;
73697;SDS011;62004;42.566;23.164;2023-04-08T03:36:10;81.47;;;24.60;;
73697;SDS011;62004;42.566;23.164;2023-04-08T03:38:36;82.13;;;24.60;;
73697;SDS011;62004;42.566;23.164;2023-04-08T03:41:01;81.50;;;24.73;;
73697;SDS011;62004;42.566;23.164;2023-04-08T03:43:26;81.97;;;24.93;;
73697;SDS011;62004;42.566;23.164;2023-04-08T03:45:51;81.47;;;24.50;;
73697;SDS011;62004;42.566;23.164;2023-04-08T03:48:17;82.07;;;25.02;;
73697;SDS011;62004;42.566;23.164;2023-04-08T03:50:42;81.40;;;24.83;;
73697;SDS011;62004;42.566;23.164;2023-04-08T03:53:07;81.83;;;24.53;;
73697;SDS011;62004;42.566;23.164;2023-04-08T03:55:35;81.30;;;24.67;;
73697;SDS011;62004;42.566;23.164;2023-04-08T03:58:00;81.45;;;24.95;;
73697;SDS011;62004;42.566;23.164;2023-04-08T04:00:25;81.57;;;25.10;;
73697;SDS011;62004;42.566;23.164;2023-04-08T04:02:51;81.03;;;24.47;;
73697;SDS011;62004;42.566;23.164;2023-04-08T04:05:16;82.03;;;25.07;;
73697;SDS011;62004;42.566;23.164;2023-04-08T04:07:41;81.97;;;24.63;;
73697;SDS011;62004;42.566;23.164;2023-04-08T04:10:07;81.47;;;24.43;;
73697;SDS011;62004;42.566;23.164;2023-04-08T04:12:32;81.40;;;24.77;;
73697;SDS011;62004;42.566;23.164;2023-04-08T04:14:58;81.70;;;25.00;;
73697;SDS011;62004;42.566;23.164;2023-04-08T04:17:23;81.73;;;24.27;;
73697;SDS011;62004;42.566;23.164;2023-04-08T04:19:48;81.53;;;24.03;;
73697;SDS011;62004;42.566;23.164;2023-04-08T04:22:13;82.13;;;25.23;;
73697;SDS011;62004;42.566;23.164;2023-04-08T04:24:39;81.67;;;24.70;;
73697;SDS011;62004;42.566;23.164;2023-04-08T04:27:04;81.70;;;24.70;;
73697;SDS011;62004;42.566;23.164;2023-04-08T04:29:30;82.27;;;25.10;;
73697;SDS011;62004;42.566;23.164;2023-04-08T04:31:55;81.80;;;24.88;;
73697;SDS011;62004;42.566;23.164;2023-04-08T04:34:20;81.53;;;24.27;;
73697;SDS011;62004;42.566;23.164;2023-04-08T04:36:45;82.23;;;25.60;;
73697;SDS011;62004;42.566;23.164;2023-04-08T04:39:11;82.07;;;24.90;;
73697;SDS011;62004;42.566;23.164;2023-04-08T04:41:36;81.67;;;24.80;;
73697;SDS011;62004;42.566;23.164;2023-04-08T04:44:04;81.72;;;25.10;;
73697;SDS011;62004;42.566;23.164;2023-04-08T04:46:29;81.65;;;24.60;;
73697;SDS011;62004;42.566;23.164;2023-04-08T04:48:55;81.63;;;24.47;;
73697;SDS011;62004;42.566;23.164;2023-04-08T04:51:20;81.85;;;25.05;;
73697;SDS011;62004;42.566;23.164;2023-04-08T04:53:45;81.63;;;25.03;;
73697;SDS011;62004;42.566;23.164;2023-04-08T04:56:11;81.30;;;24.57;;
73697;SDS011;62004;42.566;23.164;2023-04-08T04:58:36;81.83;;;25.07;;
73697;SDS011;62004;42.566;23.164;2023-04-08T05:01:01;81.97;;;25.40;;
73697;SDS011;62004;42.566;23.164;2023-04-08T05:03:26;81.83;;;24.90;;
73697;SDS011;62004;42.566;23.164;2023-04-08T05:05:52;81.87;;;25.07;;
73697;SDS011;62004;42.566;23.164;2023-04-08T05:08:18;81.68;;;24.98;;
73697;SDS011;62004;42.566;23.164;2023-04-08T05:10:43;81.85;;;25.25;;
73697;SDS011;62004;42.566;23.164;2023-04-08T05:13:09;82.10;;;25.50;;
73697;SDS011;62004;42.566;23.164;2023-04-08T05:15:34;81.93;;;25.27;;
73697;SDS011;62004;42.566;23.164;2023-04-08T05:18:00;81.65;;;25.27;;
73697;SDS011;62004;42.566;23.164;2023-04-08T05:20:25;82.20;;;25.60;;
73697;SDS011;62004;42.566;23.164;2023-04-08T05:22:50;82.20;;;25.70;;
73697;SDS011;62004;42.566;23.164;2023-04-08T05:25:15;81.57;;;24.73;;
73697;SDS011;62004;42.566;23.164;2023-04-08T05:27:40;82.20;;;25.17;;
73697;SDS011;62004;42.566;23.164;2023-04-08T05:30:06;81.93;;;25.57;;
73697;SDS011;62004;42.566;23.164;2023-04-08T05:32:32;81.65;;;25.17;;
73697;SDS011;62004;42.566;23.164;2023-04-08T05:34:57;81.87;;;25.30;;
73697;SDS011;62004;42.566;23.164;2023-04-08T05:37:25;81.95;;;25.02;;
73697;SDS011;62004;42.566;23.164;2023-04-08T05:39:51;82.07;;;25.03;;
73697;SDS011;62004;42.566;23.164;2023-04-08T05:42:16;82.07;;;25.00;;
73697;SDS011;62004;42.566;23.164;2023-04-08T05:44:41;82.17;;;25.33;;
73697;SDS011;62004;42.566;23.164;2023-04-08T05:47:08;82.38;;;25.83;;
73697;SDS011;62004;42.566;23.164;2023-04-08T05:49:33;81.93;;;25.48;;
73697;SDS011;62004;42.566;23.164;2023-04-08T05:51:58;82.03;;;25.73;;
73697;SDS011;62004;42.566;23.164;2023-04-08T05:54:23;82.23;;;25.60;;
73697;SDS011;62004;42.566;23.164;2023-04-08T05:56:49;81.70;;;25.30;;
73697;SDS011;62004;42.566;23.164;2023-04-08T05:59:14;81.83;;;25.40;;
73697;SDS011;62004;42.566;23.164;2023-04-08T06:01:39;81.95;;;25.63;;
73697;SDS011;62004;42.566;23.164;2023-04-08T06:04:05;81.93;;;25.40;;
73697;SDS011;62004;42.566;23.164;2023-04-08T06:06:30;82.73;;;26.50;;
73697;SDS011;62004;42.566;23.164;2023-04-08T06:08:55;82.83;;;26.77;;
73697;SDS011;62004;42.566;23.164;2023-04-08T06:11:20;82.10;;;25.83;;
73697;SDS011;62004;42.566;23.164;2023-04-08T06:13:46;83.47;;;27.23;;
73697;SDS011;62004;42.566;23.164;2023-04-08T06:16:11;83.17;;;27.13;;
73697;SDS011;62004;42.566;23.164;2023-04-08T06:18:37;83.68;;;27.00;;
73697;SDS011;62004;42.566;23.164;2023-04-08T06:21:02;83.47;;;27.90;;
73697;SDS011;62004;42.566;23.164;2023-04-08T06:23:28;83.27;;;26.87;;
73697;SDS011;62004;42.566;23.164;2023-04-08T06:25:53;83.60;;;27.27;;
73697;SDS011;62004;42.566;23.164;2023-04-08T06:28:18;82.90;;;26.63;;
73697;SDS011;62004;42.566;23.164;2023-04-08T06:30:43;82.87;;;26.80;;
73697;SDS011;62004;42.566;23.164;2023-04-08T06:33:09;83.13;;;27.23;;
73697;SDS011;62004;42.566;23.164;2023-04-08T06:35:34;83.33;;;27.10;;
73697;SDS011;62004;42.566;23.164;2023-04-08T06:38:01;83.18;;;26.92;;
73697;SDS011;62004;42.566;23.164;2023-04-08T06:40:26;83.10;;;26.47;;
73697;SDS011;62004;42.566;23.164;2023-04-08T06:42:51;83.27;;;26.70;;
73697;SDS011;62004;42.566;23.164;2023-04-08T06:45:18;83.10;;;27.13;;
73697;SDS011;62004;42.566;23.164;2023-04-08T06:47:43;83.40;;;27.20;;
73697;SDS011;62004;42.566;23.164;2023-04-08T06:50:08;83.47;;;27.60;;
73697;SDS011;62004;42.566;23.164;2023-04-08T06:52:34;83.00;;;27.42;;
73697;SDS011;62004;42.566;23.164;2023-04-08T06:54:59;83.22;;;28.08;;
73697;SDS011;62004;42.566;23.164;2023-04-08T06:57:25;85.18;;;29.27;;
73697;SDS011;62004;42.566;23.164;2023-04-08T06:59:50;84.33;;;27.43;;
73697;SDS011;62004;42.566;23.164;2023-04-08T07:02:17;85.78;;;29.30;;
73697;SDS011;62004;42.566;23.164;2023-04-08T07:04:42;84.67;;;27.97;;
73697;SDS011;62004;42.566;23.164;2023-04-08T07:07:07;84.90;;;28.33;;
73697;SDS011;62004;42.566;23.164;2023-04-08T07:09:33;85.55;;;29.15;;
73697;SDS011;62004;42.566;23.164;2023-04-08T07:11:58;85.37;;;28.53;;
73697;SDS011;62004;42.566;23.164;2023-04-08T07:14:24;85.70;;;28.93;;
73697;SDS011;62004;42.566;23.164;2023-04-08T07:16:49;85.45;;;28.35;;
73697;SDS011;62004;42.566;23.164;2023-04-08T07:19:14;85.65;;;28.40;;
73697;SDS011;62004;42.566;23.164;2023-04-08T07:21:40;86.50;;;29.77;;
73697;SDS011;62004;42.566;23.164;2023-04-08T07:24:05;85.45;;;28.38;;
73697;SDS011;62004;42.566;23.164;2023-04-08T07:26:31;85.97;;;29.10;;
73697;SDS011;62004;42.566;23.164;2023-04-08T07:28:56;86.07;;;29.23;;
73697;SDS011;62004;42.566;23.164;2023-04-08T07:31:21;85.53;;;28.37;;
73697;SDS011;62004;42.566;23.164;2023-04-08T07:33:47;85.60;;;28.83;;
73697;SDS011;62004;42.566;23.164;2023-04-08T07:36:12;85.50;;;28.57;;
73697;SDS011;62004;42.566;23.164;2023-04-08T07:38:38;86.13;;;29.30;;
73697;SDS011;62004;42.566;23.164;2023-04-08T07:41:03;85.82;;;29.02;;
73697;SDS011;62004;42.566;23.164;2023-04-08T07:43:29;85.82;;;28.67;;
73697;SDS011;62004;42.566;23.164;2023-04-08T07:45:58;85.68;;;28.55;;
73697;SDS011;62004;42.566;23.164;2023-04-08T07:48:24;86.63;;;29.42;;
73697;SDS011;62004;42.566;23.164;2023-04-08T07:50:49;86.63;;;29.07;;
73697;SDS011;62004;42.566;23.164;2023-04-08T07:53:14;86.23;;;28.77;;
73697;SDS011;62004;42.566;23.164;2023-04-08T07:55:39;86.20;;;28.60;;
73697;SDS011;62004;42.566;23.164;2023-04-08T07:58:06;87.07;;;30.05;;
73697;SDS011;62004;42.566;23.164;2023-04-08T08:00:31;85.93;;;28.70;;
73697;SDS011;62004;42.566;23.164;2023-04-08T08:02:57;86.38;;;29.15;;
73697;SDS011;62004;42.566;23.164;2023-04-08T08:05:22;86.13;;;28.63;;
73697;SDS011;62004;42.566;23.164;2023-04-08T08:07:47;86.17;;;28.97;;
73697;SDS011;62004;42.566;23.164;2023-04-08T08:10:14;86.45;;;29.13;;
73697;SDS011;62004;42.566;23.164;2023-04-08T08:12:39;86.20;;;28.77;;
73697;SDS011;62004;42.566;23.164;2023-04-08T08:15:05;86.35;;;29.48;;
73697;SDS011;62004;42.566;23.164;2023-04-08T08:17:31;85.60;;;28.08;;
73697;SDS011;62004;42.566;23.164;2023-04-08T08:19:57;85.78;;;29.10;;
73697;SDS011;62004;42.566;23.164;2023-04-08T08:22:23;85.75;;;28.88;;
73697;SDS011;62004;42.566;23.164;2023-04-08T08:24:48;85.20;;;28.37;;
73697;SDS011;62004;42.566;23.164;2023-04-08T08:27:13;85.27;;;28.50;;
73697;SDS011;62004;42.566;23.164;2023-04-08T08:29:38;85.50;;;29.13;;
73697;SDS011;62004;42.566;23.164;2023-04-08T08:32:04;85.30;;;28.50;;
73697;SDS011;62004;42.566;23.164;2023-04-08T08:34:29;84.90;;;28.07;;
73697;SDS011;62004;42.566;23.164;2023-04-08T08:36:54;85.57;;;28.95;;
73697;SDS011;62004;42.566;23.164;2023-04-08T08:39:20;85.83;;;29.03;;
73697;SDS011;62004;42.566;23.164;2023-04-08T08:41:45;84.93;;;27.80;;
73697;SDS011;62004;42.566;23.164;2023-04-08T08:44:10;86.10;;;29.37;;
73697;SDS011;62004;42.566;23.164;2023-04-08T08:46:36;85.97;;;28.40;;
73697;SDS011;62004;42.566;23.164;2023-04-08T08:49:07;86.30;;;28.77;;
73697;SDS011;62004;42.566;23.164;2023-04-08T08:51:32;86.87;;;29.50;;
73697;SDS011;62004;42.566;23.164;2023-04-08T08:54:00;87.55;;;30.23;;
73697;SDS011;62004;42.566;23.164;2023-04-08T08:56:26;87.25;;;29.55;;
73697;SDS011;62004;42.566;23.164;2023-04-08T08:58:51;87.73;;;29.90;;
73697;SDS011;62004;42.566;23.164;2023-04-08T09:04:12;88.35;;;30.05;;
73697;SDS011;62004;42.566;23.164;2023-04-08T09:06:39;87.45;;;27.98;;
73697;SDS011;62004;42.566;23.164;2023-04-08T09:09:05;88.95;;;29.45;;
73697;SDS011;62004;42.566;23.164;2023-04-08T09:11:34;88.40;;;28.90;;
73697;SDS011;62004;42.566;23.164;2023-04-08T09:13:59;89.32;;;29.35;;
73697;SDS011;62004;42.566;23.164;2023-04-08T09:16:24;89.27;;;29.70;;
73697;SDS011;62004;42.566;23.164;2023-04-08T09:18:50;88.97;;;28.40;;
73697;SDS011;62004;42.566;23.164;2023-04-08T09:21:16;89.50;;;29.10;;
73697;SDS011;62004;42.566;23.164;2023-04-08T09:23:42;89.40;;;29.13;;
73697;SDS011;62004;42.566;23.164;2023-04-08T09:28:34;89.15;;;29.70;;
73697;SDS011;62004;42.566;23.164;2023-04-08T09:30:59;89.63;;;29.33;;
73697;SDS011;62004;42.566;23.164;2023-04-08T09:33:31;89.25;;;29.42;;
73697;SDS011;62004;42.566;23.164;2023-04-08T09:35:56;89.70;;;28.98;;
73697;SDS011;62004;42.566;23.164;2023-04-08T09:38:22;91.50;;;29.88;;
73697;SDS011;62004;42.566;23.164;2023-04-08T09:40:47;91.40;;;28.73;;
73697;SDS011;62004;42.566;23.164;2023-04-08T09:43:12;93.73;;;29.77;;
73697;SDS011;62004;42.566;23.164;2023-04-08T09:45:39;92.93;;;29.65;;
73697;SDS011;62004;42.566;23.164;2023-04-08T09:48:11;90.95;;;28.98;;
73697;SDS011;62004;42.566;23.164;2023-04-08T09:50:39;89.47;;;28.90;;
73697;SDS011;62004;42.566;23.164;2023-04-08T09:53:13;89.90;;;29.45;;
73697;SDS011;62004;42.566;23.164;2023-04-08T09:55:43;90.80;;;29.17;;
73697;SDS011;62004;42.566;23.164;2023-04-08T09:58:15;90.22;;;28.70;;
73697;SDS011;62004;42.566;23.164;2023-04-08T10:00:46;91.75;;;28.92;;
73697;SDS011;62004;42.566;23.164;2023-04-08T10:05:40;92.45;;;28.38;;
73697;SDS011;62004;42.566;23.164;2023-04-08T10:08:06;91.25;;;27.95;;
73697;SDS011;62004;42.566;23.164;2023-04-08T10:10:33;89.88;;;29.05;;
73697;SDS011;62004;42.566;23.164;2023-04-08T10:12:58;90.03;;;29.02;;
73697;SDS011;62004;42.566;23.164;2023-04-08T10:15:27;89.17;;;29.23;;
73697;SDS011;62004;42.566;23.164;2023-04-08T10:22:59;89.93;;;30.08;;
73697;SDS011;62004;42.566;23.164;2023-04-08T10:25:37;90.63;;;29.27;;
73697;SDS011;62004;42.566;23.164;2023-04-08T10:30:45;90.30;;;29.42;;
73697;SDS011;62004;42.566;23.164;2023-04-08T10:33:11;90.22;;;29.40;;
73697;SDS011;62004;42.566;23.164;2023-04-08T10:35:38;89.07;;;29.25;;
73697;SDS011;62004;42.566;23.164;2023-04-08T10:38:06;89.38;;;28.75;;
73697;SDS011;62004;42.566;23.164;2023-04-08T10:40:34;88.07;;;29.33;;
73697;SDS011;62004;42.566;23.164;2023-04-08T10:43:03;88.53;;;29.73;;
73697;SDS011;62004;42.566;23.164;2023-04-08T10:45:29;87.93;;;28.90;;
73697;SDS011;62004;42.566;23.164;2023-04-08T10:47:54;87.83;;;28.90;;
73697;SDS011;62004;42.566;23.164;2023-04-08T10:50:20;87.67;;;28.30;;
73697;SDS011;62004;42.566;23.164;2023-04-08T10:55:12;89.27;;;30.00;;
73697;SDS011;62004;42.566;23.164;2023-04-08T10:57:38;88.57;;;28.60;;
73697;SDS011;62004;42.566;23.164;2023-04-08T11:00:08;89.15;;;29.50;;
73697;SDS011;62004;42.566;23.164;2023-04-08T11:02:34;89.20;;;29.63;;
73697;SDS011;62004;42.566;23.164;2023-04-08T11:05:01;88.13;;;29.23;;
73697;SDS011;62004;42.566;23.164;2023-04-08T11:07:27;87.55;;;29.52;;
73697;SDS011;62004;42.566;23.164;2023-04-08T11:09:52;87.43;;;30.47;;
73697;SDS011;62004;42.566;23.164;2023-04-08T11:12:17;86.70;;;29.93;;
73697;SDS011;62004;42.566;23.164;2023-04-08T11:14:44;86.38;;;29.63;;
73697;SDS011;62004;42.566;23.164;2023-04-08T11:17:09;85.33;;;29.13;;
73697;SDS011;62004;42.566;23.164;2023-04-08T11:19:34;85.20;;;29.63;;
73697;SDS011;62004;42.566;23.164;2023-04-08T11:22:01;85.43;;;29.45;;
73697;SDS011;62004;42.566;23.164;2023-04-08T11:24:26;86.03;;;30.00;;
73697;SDS011;62004;42.566;23.164;2023-04-08T11:26:52;85.57;;;29.50;;
73697;SDS011;62004;42.566;23.164;2023-04-08T11:29:18;85.38;;;29.40;;
73697;SDS011;62004;42.566;23.164;2023-04-08T11:31:43;85.30;;;29.08;;
73697;SDS011;62004;42.566;23.164;2023-04-08T11:34:09;86.43;;;30.23;;
73697;SDS011;62004;42.566;23.164;2023-04-08T11:36:34;86.07;;;29.47;;
73697;SDS011;62004;42.566;23.164;2023-04-08T11:39:05;85.28;;;29.45;;
73697;SDS011;62004;42.566;23.164;2023-04-08T11:43:55;84.33;;;29.10;;
73697;SDS011;62004;42.566;23.164;2023-04-08T11:46:21;84.93;;;29.90;;
73697;SDS011;62004;42.566;23.164;2023-04-08T11:48:59;84.00;;;28.05;;
73697;SDS011;62004;42.566;23.164;2023-04-08T11:51:25;84.97;;;29.42;;
73697;SDS011;62004;42.566;23.164;2023-04-08T11:53:51;85.20;;;29.67;;
73697;SDS011;62004;42.566;23.164;2023-04-08T11:56:17;84.93;;;29.20;;
73697;SDS011;62004;42.566;23.164;2023-04-08T11:58:42;85.03;;;29.45;;
73697;SDS011;62004;42.566;23.164;2023-04-08T12:01:07;84.67;;;28.97;;
73697;SDS011;62004;42.566;23.164;2023-04-08T12:03:33;84.37;;;28.87;;
73697;SDS011;62004;42.566;23.164;2023-04-08T12:05:58;84.87;;;29.77;;
73697;SDS011;62004;42.566;23.164;2023-04-08T12:08:23;84.37;;;29.17;;
73697;SDS011;62004;42.566;23.164;2023-04-08T12:10:48;84.07;;;29.20;;
73697;SDS011;62004;42.566;23.164;2023-04-08T12:13:14;83.50;;;28.57;;
73697;SDS011;62004;42.566;23.164;2023-04-08T12:15:39;82.10;;;28.33;;
73697;SDS011;62004;42.566;23.164;2023-04-08T12:18:05;82.68;;;28.77;;
73697;SDS011;62004;42.566;23.164;2023-04-08T12:20:30;82.43;;;28.67;;
73697;SDS011;62004;42.566;23.164;2023-04-08T12:22:55;82.47;;;28.33;;
73697;SDS011;62004;42.566;23.164;2023-04-08T12:25:20;83.67;;;28.97;;
73697;SDS011;62004;42.566;23.164;2023-04-08T12:27:46;83.67;;;28.37;;
73697;SDS011;62004;42.566;23.164;2023-04-08T12:30:11;83.65;;;28.13;;
73697;SDS011;62004;42.566;23.164;2023-04-08T12:32:37;83.50;;;28.27;;
73697;SDS011;62004;42.566;23.164;2023-04-08T12:35:02;83.87;;;28.87;;
73697;SDS011;62004;42.566;23.164;2023-04-08T12:37:28;84.22;;;29.33;;
73697;SDS011;62004;42.566;23.164;2023-04-08T12:39:53;83.53;;;28.33;;
73697;SDS011;62004;42.566;23.164;2023-04-08T12:42:18;83.70;;;28.73;;
73697;SDS011;62004;42.566;23.164;2023-04-08T12:44:43;83.27;;;29.10;;
73697;SDS011;62004;42.566;23.164;2023-04-08T12:47:09;82.70;;;28.48;;
73697;SDS011;62004;42.566;23.164;2023-04-08T12:49:34;82.22;;;28.20;;
73697;SDS011;62004;42.566;23.164;2023-04-08T12:52:00;82.55;;;28.13;;
73697;SDS011;62004;42.566;23.164;2023-04-08T12:54:25;82.60;;;28.80;;
73697;SDS011;62004;42.566;23.164;2023-04-08T12:56:50;82.30;;;28.37;;
73697;SDS011;62004;42.566;23.164;2023-04-08T12:59:15;82.00;;;27.93;;
73697;SDS011;62004;42.566;23.164;2023-04-08T13:01:41;81.97;;;27.90;;
73697;SDS011;62004;42.566;23.164;2023-04-08T13:04:06;82.38;;;28.33;;
73697;SDS011;62004;42.566;23.164;2023-04-08T13:06:31;82.37;;;28.43;;
73697;SDS011;62004;42.566;23.164;2023-04-08T13:08:57;82.17;;;28.27;;
73697;SDS011;62004;42.566;23.164;2023-04-08T13:11:22;82.45;;;27.98;;
73697;SDS011;62004;42.566;23.164;2023-04-08T13:13:48;82.50;;;28.30;;
73697;SDS011;62004;42.566;23.164;2023-04-08T13:16:13;82.68;;;28.40;;
73697;SDS011;62004;42.566;23.164;2023-04-08T13:18:39;82.40;;;28.45;;
73697;SDS011;62004;42.566;23.164;2023-04-08T13:21:05;82.40;;;27.80;;
73697;SDS011;62004;42.566;23.164;2023-04-08T13:23:35;81.97;;;27.75;;
73697;SDS011;62004;42.566;23.164;2023-04-08T13:26:02;82.25;;;27.88;;
73697;SDS011;62004;42.566;23.164;2023-04-08T13:28:31;82.68;;;28.90;;
73697;SDS011;62004;42.566;23.164;2023-04-08T13:30:57;82.38;;;27.90;;
73697;SDS011;62004;42.566;23.164;2023-04-08T13:33:28;82.13;;;28.17;;
73697;SDS011;62004;42.566;23.164;2023-04-08T13:35:55;82.80;;;28.98;;
73697;SDS011;62004;42.566;23.164;2023-04-08T13:38:25;82.57;;;28.60;;
73697;SDS011;62004;42.566;23.164;2023-04-08T13:40:50;82.57;;;28.60;;
73697;SDS011;62004;42.566;23.164;2023-04-08T13:43:15;81.87;;;27.33;;
73697;SDS011;62004;42.566;23.164;2023-04-08T13:45:41;81.93;;;27.77;;
73697;SDS011;62004;42.566;23.164;2023-04-08T13:48:06;82.73;;;28.23;;
73697;SDS011;62004;42.566;23.164;2023-04-08T13:50:31;82.00;;;27.93;;
73697;SDS011;62004;42.566;23.164;2023-04-08T13:52:56;82.23;;;28.33;;
73697;SDS011;62004;42.566;23.164;2023-04-08T13:55:22;82.47;;;28.30;;
73697;SDS011;62004;42.566;23.164;2023-04-08T13:57:47;82.40;;;28.20;;
73697;SDS011;62004;42.566;23.164;2023-04-08T14:00:12;82.03;;;27.00;;
73697;SDS011;62004;42.566;23.164;2023-04-08T14:02:37;81.95;;;27.52;;
73697;SDS011;62004;42.566;23.164;2023-04-08T14:05:03;81.53;;;26.83;;
73697;SDS011;62004;42.566;23.164;2023-04-08T14:07:28;82.05;;;27.42;;
73697;SDS011;62004;42.566;23.164;2023-04-08T14:09:53;81.27;;;26.57;;
73697;SDS011;62004;42.566;23.164;2023-04-08T14:12:19;81.30;;;26.73;;
73697;SDS011;62004;42.566;23.164;2023-04-08T14:14:44;81.53;;;26.93;;
73697;SDS011;62004;42.566;23.164;2023-04-08T14:17:09;81.30;;;26.40;;
73697;SDS011;62004;42.566;23.164;2023-04-08T14:19:35;81.88;;;27.33;;
73697;SDS011;62004;42.566;23.164;2023-04-08T14:22:00;81.27;;;26.87;;
73697;SDS011;62004;42.566;23.164;2023-04-08T14:24:25;81.10;;;26.70;;
73697;SDS011;62004;42.566;23.164;2023-04-08T14:26:51;81.57;;;26.98;;